HBJ weather

One O One Heliport
Cuajimalpa, Distrito Federal, Mexico

Public forecast

Using degrees Celsius for public forecast. Weather courtesy of forecast.io.

METAR (pilot weather report)

Closest report is Licenciado Benito Juarez International Airport, 12.6 nm (23.3 km) ENE. Retrieved 2019/08/24 16:45 UTC (52 minutes ago):

MMMX 241645Z 08005KT 6SM FEW020 21/10 A3038 NOSIG RMK 8/100 HZY MDT CU 3TH QUAD ISOL AC CI

TAF (pilot weather forecast)

Closest forecast is Licenciado Benito Juarez International Airport, 12.6 nm (23.3 km) ENE. Retrieved 2019/08/24 12:29 UTC (5 hours ago):

TAF COR MMMX 241222Z 2412/2518 23005KT P6SM SCT080 SCT200 TX24/2421Z TN15/2412Z FM241800 03010KT P6SM BKN025 BKN080 OVC220 BECMG 2421/2423 5SM -RA BKN025 OVC080 PROB40 2423/2503 4SM TSRA BKN025CB FM250800 01005KT P6SM SCT025 BKN100 BKN220 FM251400 00000KT 6SM HZ SCT090 SCT220